Time;durP1;ratioP1;P1;durP2;ratioP2;P2;SDS_P1;SDS_P2;PMS_P1;PMS_P2;Temp;Humidity;BMP_temperature;BMP_pressure;BME280_temperature;BME280_humidity;BME280_pressure;Samples;Min_cycle;Max_cycle;Signal;HPM_P1;HPM_P2
2021/09/10 00:01:01;;;;;;;19.07;17.07;;;;;;;17.72;76.72;101157.53;5056215;28;20218;-81
2021/09/10 00:03:26;;;;;;;22.90;19.03;;;;;;;17.78;76.05;101155.78;5038979;28;20199;-80
2021/09/10 00:05:51;;;;;;;20.00;17.67;;;;;;;17.80;76.99;101148.00;5037379;28;20274;-79
2021/09/10 00:08:17;;;;;;;20.30;18.23;;;;;;;17.84;76.40;101149.72;5038581;28;20227;-79
2021/09/10 00:10:42;;;;;;;20.13;18.03;;;;;;;17.87;77.21;101157.47;5050196;28;20202;-80
2021/09/10 00:13:07;;;;;;;19.97;17.93;;;;;;;17.89;76.38;101148.84;5039980;28;20190;-78
2021/09/10 00:15:33;;;;;;;20.10;17.97;;;;;;;17.89;76.49;101143.66;5037549;28;20293;-79
2021/09/10 00:17:58;;;;;;;19.60;17.57;;;;;;;17.89;76.49;101142.78;5051213;28;20231;-80
2021/09/10 00:20:23;;;;;;;19.33;17.30;;;;;;;17.91;76.60;101143.66;5060787;28;20233;-79
2021/09/10 00:22:49;;;;;;;19.27;17.20;;;;;;;17.94;76.44;101135.84;5048387;28;20218;-80
2021/09/10 00:25:14;;;;;;;18.93;16.93;;;;;;;17.96;76.57;101134.94;5048535;28;20278;-81
2021/09/10 00:27:40;;;;;;;19.90;17.63;;;;;;;17.95;77.08;101137.53;5055127;28;20197;-81
2021/09/10 00:30:06;;;;;;;20.10;18.10;;;;;;;17.93;78.27;101141.88;5044623;28;20230;-78
2021/09/10 00:32:32;;;;;;;20.97;18.77;;;;;;;17.94;77.22;101143.59;5052275;28;20237;-81
2021/09/10 00:34:57;;;;;;;19.93;17.93;;;;;;;18.00;77.17;101149.63;5043253;28;20186;-79
2021/09/10 00:37:22;;;;;;;22.70;17.97;;;;;;;18.01;77.43;101155.69;5040143;28;20189;-79
2021/09/10 00:39:48;;;;;;;23.60;21.07;;;;;;;17.95;76.75;101163.47;5038295;28;20225;-78
2021/09/10 00:42:13;;;;;;;22.87;20.50;;;;;;;17.98;76.66;101171.22;5038368;28;20191;-78
2021/09/10 00:44:39;;;;;;;21.00;18.83;;;;;;;18.04;76.49;101158.22;5042833;28;20186;-80
2021/09/10 00:47:04;;;;;;;21.10;18.90;;;;;;;18.06;75.80;101149.56;5042383;28;20200;-80
2021/09/10 00:49:30;;;;;;;21.53;19.23;;;;;;;18.10;76.51;101150.44;5050252;28;20183;-79
2021/09/10 00:51:57;;;;;;;21.53;19.10;;;;;;;18.09;76.13;101154.75;5040803;28;20186;-80
2021/09/10 00:54:23;;;;;;;21.87;19.77;;;;;;;18.09;76.70;101151.28;5039581;28;20193;-78
2021/09/10 00:56:48;;;;;;;22.83;20.20;;;;;;;18.09;76.85;101143.50;5037115;28;20190;-79
2021/09/10 00:59:13;;;;;;;23.20;19.33;;;;;;;18.12;76.87;101143.50;5041491;28;20276;-81
2021/09/10 01:01:39;;;;;;;20.70;18.57;;;;;;;18.12;76.71;101149.56;5052796;28;20237;-80
2021/09/10 01:04:04;;;;;;;20.50;18.30;;;;;;;18.15;75.96;101131.38;5024715;28;20186;-77
2021/09/10 01:06:30;;;;;;;20.83;18.63;;;;;;;18.16;76.88;101138.31;5043384;28;20187;-79
2021/09/10 01:08:57;;;;;;;20.60;18.43;;;;;;;18.19;75.72;101134.81;5041614;28;20878;-79
2021/09/10 01:11:24;;;;;;;19.07;17.17;;;;;;;18.21;76.33;101130.47;5040309;28;20202;-80
2021/09/10 01:13:50;;;;;;;21.40;18.47;;;;;;;18.21;76.47;101128.75;5031604;28;20190;-82
2021/09/10 01:16:17;;;;;;;19.73;17.63;;;;;;;18.25;75.81;101125.28;5058480;28;20209;-80
2021/09/10 01:18:43;;;;;;;19.53;17.47;;;;;;;18.25;76.18;101127.88;5055358;28;20213;-81
2021/09/10 01:21:08;;;;;;;22.00;18.60;;;;;;;18.27;76.08;101136.47;5038350;28;20229;-79
2021/09/10 01:23:34;;;;;;;22.70;18.70;;;;;;;18.28;75.73;101138.19;5044129;28;20186;-79
2021/09/10 01:25:59;;;;;;;20.40;18.23;;;;;;;18.28;76.62;101139.94;5035865;28;20392;-79
2021/09/10 01:28:24;;;;;;;19.97;17.97;;;;;;;18.28;75.65;101139.94;5037626;28;20187;-80
2021/09/10 01:30:49;;;;;;;20.40;18.37;;;;;;;18.26;76.65;101144.25;5027675;28;20213;-78
2021/09/10 01:33:15;;;;;;;21.33;19.23;;;;;;;18.22;76.75;101135.66;5036613;28;20195;-79
2021/09/10 01:35:40;;;;;;;21.07;18.80;;;;;;;18.21;76.81;101139.13;5053144;28;20210;-78
2021/09/10 01:38:08;;;;;;;20.43;18.37;;;;;;;18.14;77.50;101146.97;5030139;28;20276;-78
2021/09/10 01:40:34;;;;;;;18.27;16.47;;;;;;;18.14;77.00;101140.03;5055486;28;20216;-79
2021/09/10 01:43:00;;;;;;;20.80;18.57;;;;;;;18.14;77.40;101146.97;5046588;28;20195;-82
2021/09/10 01:45:25;;;;;;;22.33;19.63;;;;;;;18.11;77.76;101154.75;5017234;28;20183;-79
2021/09/10 01:47:51;;;;;;;20.37;18.27;;;;;;;18.04;77.54;101147.88;5038475;28;20187;-79
2021/09/10 01:50:18;;;;;;;19.93;17.97;;;;;;;18.03;77.36;101146.16;5038995;28;20290;-78
2021/09/10 01:52:44;;;;;;;22.57;19.23;;;;;;;18.02;77.14;101150.50;5036908;28;20201;-78
2021/09/10 01:55:12;;;;;;;20.70;18.57;;;;;;;17.94;77.36;101156.56;5037769;28;20178;-78
2021/09/10 01:57:38;;;;;;;21.73;19.63;;;;;;;17.94;77.75;101157.44;5021270;28;20690;-81
2021/09/10 02:00:05;;;;;;;23.03;17.73;;;;;;;17.89;77.42;101166.09;5037548;28;20223;-79
2021/09/10 02:02:32;;;;;;;22.43;19.83;;;;;;;17.78;78.12;101166.13;5036317;28;20236;-80
2021/09/10 02:04:57;;;;;;;22.43;19.17;;;;;;;17.84;77.62;101168.72;5048662;28;20654;-81
2021/09/10 02:07:23;;;;;;;24.57;20.53;;;;;;;17.82;78.16;101185.16;5040724;28;20236;-80
2021/09/10 02:09:48;;;;;;;25.03;22.20;;;;;;;17.63;79.20;101183.47;5059526;28;20194;-78
2021/09/10 02:12:13;;;;;;;23.13;20.73;;;;;;;17.71;78.22;101179.13;5065277;28;20208;-79
2021/09/10 02:14:39;;;;;;;23.23;21.00;;;;;;;17.74;77.96;101171.38;5056915;28;20632;-80
2021/09/10 02:17:04;;;;;;;22.57;20.10;;;;;;;17.76;78.42;101174.78;5057824;28;20193;-80
2021/09/10 02:19:30;;;;;;;23.57;20.67;;;;;;;17.76;77.99;101177.38;5056378;28;20197;-78
2021/09/10 02:21:55;;;;;;;23.17;20.60;;;;;;;17.72;77.58;101180.84;5056815;28;20186;-80
2021/09/10 02:24:21;;;;;;;23.73;20.00;;;;;;;17.69;77.83;101180.88;5056259;28;20201;-80
2021/09/10 02:26:47;;;;;;;22.60;20.17;;;;;;;17.68;78.02;101177.41;5048761;28;20251;-79
2021/09/10 02:29:12;;;;;;;22.60;20.10;;;;;;;17.68;77.72;101184.34;5068692;28;20255;-80
2021/09/10 02:31:40;;;;;;;21.33;19.13;;;;;;;17.68;77.79;101186.94;5068390;28;20206;-79
2021/09/10 02:34:05;;;;;;;22.83;20.50;;;;;;;17.59;78.33;101202.50;5067051;28;20256;-79
2021/09/10 02:36:30;;;;;;;23.00;20.73;;;;;;;17.55;78.29;101199.03;5047039;28;20214;-80
2021/09/10 02:38:56;;;;;;;22.67;20.37;;;;;;;17.58;78.41;101203.34;5059311;28;20606;-80
2021/09/10 02:41:21;;;;;;;22.27;20.00;;;;;;;17.61;78.39;101200.75;5047774;28;20318;-79
2021/09/10 02:43:46;;;;;;;21.63;19.43;;;;;;;17.63;78.08;101197.31;5040543;28;20191;-79
2021/09/10 02:46:12;;;;;;;23.23;20.37;;;;;;;17.63;78.33;101197.31;5037216;28;20186;-80
2021/09/10 02:48:37;;;;;;;24.33;21.83;;;;;;;17.66;77.94;101204.19;5039767;28;20714;-81
2021/09/10 02:51:03;;;;;;;22.00;19.77;;;;;;;17.66;78.49;101201.59;5039224;28;20206;-80
2021/09/10 02:53:29;;;;;;;21.20;19.07;;;;;;;17.68;78.20;101202.47;5019715;28;20205;-81
2021/09/10 02:55:56;;;;;;;23.20;20.73;;;;;;;17.70;78.38;101209.38;5035532;28;20194;-80
2021/09/10 02:58:22;;;;;;;23.47;20.73;;;;;;;17.68;78.60;101202.47;5033531;28;20203;-81
2021/09/10 03:00:47;;;;;;;22.20;19.90;;;;;;;17.72;78.27;101193.81;5034992;28;20214;-78
2021/09/10 03:03:14;;;;;;;23.10;20.67;;;;;;;17.75;78.17;101199.84;5036677;28;20171;-80
2021/09/10 03:05:40;;;;;;;22.73;20.33;;;;;;;17.73;78.52;101201.56;5020413;28;20250;-78
2021/09/10 03:08:05;;;;;;;23.83;21.43;;;;;;;17.76;78.70;101200.69;5036352;28;20260;-81
2021/09/10 03:10:31;;;;;;;22.53;20.23;;;;;;;17.80;78.29;101195.50;5019728;28;20203;-81
2021/09/10 03:12:56;;;;;;;22.90;20.60;;;;;;;17.84;78.39;101188.59;5035974;28;20214;-81
2021/09/10 03:15:21;;;;;;;23.80;20.57;;;;;;;17.78;78.75;101201.56;5037186;28;20191;-79
2021/09/10 03:17:47;;;;;;;24.07;21.43;;;;;;;17.81;79.24;101196.34;5038435;28;20178;-78
2021/09/10 03:20:13;;;;;;;24.57;21.90;;;;;;;17.85;78.84;101192.88;5034332;28;20218;-79
2021/09/10 03:22:38;;;;;;;23.87;21.47;;;;;;;17.88;78.49;101190.28;5018101;28;20197;-80
2021/09/10 03:25:05;;;;;;;23.80;21.27;;;;;;;17.85;78.89;101192.88;5016996;28;20544;-79
2021/09/10 03:27:30;;;;;;;22.67;20.37;;;;;;;17.85;78.22;101185.13;5035416;28;20194;-78
2021/09/10 03:29:56;;;;;;;23.30;21.03;;;;;;;17.87;78.29;101181.66;5036019;28;20229;-79
2021/09/10 03:32:22;;;;;;;24.17;21.70;;;;;;;17.87;79.16;101183.41;5034387;28;20230;-79
2021/09/10 03:34:47;;;;;;;23.87;21.37;;;;;;;17.89;78.78;101184.25;5024905;28;20276;-79
2021/09/10 03:37:13;;;;;;;23.23;20.80;;;;;;;17.90;78.40;101185.94;5032764;28;20198;-79
2021/09/10 03:39:39;;;;;;;21.60;19.33;;;;;;;17.92;78.41;101184.22;5034009;28;20218;-80
2021/09/10 03:42:05;;;;;;;22.50;19.97;;;;;;;17.86;79.29;101182.53;5013676;28;20221;-80
2021/09/10 03:44:30;;;;;;;23.50;21.00;;;;;;;17.89;79.11;101182.53;5032593;28;20193;-79
2021/09/10 03:46:56;;;;;;;23.23;20.83;;;;;;;17.89;79.35;101184.25;5032826;28;20190;-79
2021/09/10 03:49:21;;;;;;;21.70;19.43;;;;;;;17.85;79.54;101178.22;5039445;28;20256;-80
2021/09/10 03:51:46;;;;;;;23.87;21.00;;;;;;;17.88;79.27;101177.34;5024304;28;20211;-79
2021/09/10 03:54:12;;;;;;;21.33;19.20;;;;;;;17.89;79.40;101177.34;5021504;28;20187;-81
2021/09/10 03:56:37;;;;;;;24.13;21.00;;;;;;;17.92;79.23;101171.28;5038560;28;20198;-79
2021/09/10 03:59:03;;;;;;;23.10;20.70;;;;;;;17.90;79.39;101173.88;5040447;28;20198;-79
2021/09/10 04:01:28;;;;;;;22.00;19.80;;;;;;;17.90;79.36;101167.81;5019988;28;20207;-79
2021/09/10 04:03:55;;;;;;;23.43;21.13;;;;;;;17.89;79.75;101166.97;5047811;28;20206;-81
2021/09/10 04:06:20;;;;;;;22.43;20.23;;;;;;;17.89;79.62;101179.94;5023130;28;20191;-79
2021/09/10 04:08:48;;;;;;;23.77;21.20;;;;;;;17.93;79.59;101167.81;5041363;28;20197;-79
2021/09/10 04:11:14;;;;;;;23.90;21.50;;;;;;;17.94;79.59;101169.53;5038784;28;20198;-79
2021/09/10 04:13:40;;;;;;;23.73;21.13;;;;;;;17.95;79.61;101164.34;5029732;28;20179;-79
2021/09/10 04:16:06;;;;;;;24.87;21.57;;;;;;;17.95;79.85;101168.66;5038745;28;20205;-79
2021/09/10 04:18:31;;;;;;;23.07;20.60;;;;;;;17.93;79.79;101162.63;5038900;28;20187;-81
2021/09/10 04:20:56;;;;;;;23.03;20.53;;;;;;;17.94;79.51;101164.34;5039748;28;20285;-78
2021/09/10 04:23:21;;;;;;;23.83;21.23;;;;;;;17.95;79.67;101155.69;5039963;28;20187;-79
2021/09/10 04:25:47;;;;;;;22.53;20.30;;;;;;;17.94;79.57;101157.44;5039961;28;20190;-77
2021/09/10 04:28:12;;;;;;;25.73;21.47;;;;;;;17.96;79.74;101162.63;5038967;28;20191;-80
2021/09/10 04:30:38;;;;;;;24.53;21.63;;;;;;;17.93;80.38;101167.81;5037302;28;20635;-79
2021/09/10 04:33:04;;;;;;;27.03;21.73;;;;;;;17.92;80.11;101159.16;5037986;28;20170;-79
2021/09/10 04:35:29;;;;;;;25.03;21.70;;;;;;;17.96;80.40;101162.63;5038330;28;20182;-78
2021/09/10 04:37:54;;;;;;;25.07;22.57;;;;;;;17.94;80.03;101159.16;5037830;28;20206;-78
2021/09/10 04:40:20;;;;;;;22.87;20.53;;;;;;;17.96;79.49;101165.22;5036682;28;20230;-79
2021/09/10 04:42:45;;;;;;;25.87;22.13;;;;;;;17.91;80.29;101161.78;5037192;28;20240;-78
2021/09/10 04:45:11;;;;;;;24.00;21.70;;;;;;;17.95;79.79;101166.06;5036928;28;20209;-80
2021/09/10 04:47:37;;;;;;;23.97;21.57;;;;;;;17.94;79.97;101162.63;5037067;28;20233;-79
2021/09/10 04:50:02;;;;;;;24.00;21.53;;;;;;;17.97;79.42;101172.94;5020206;28;20247;-79
2021/09/10 04:52:28;;;;;;;24.60;22.10;;;;;;;17.97;80.35;101169.53;5036554;28;20241;-81
2021/09/10 04:54:53;;;;;;;25.47;21.90;;;;;;;17.97;80.52;101167.75;5037398;28;20202;-79
2021/09/10 04:57:18;;;;;;;25.33;22.73;;;;;;;18.00;80.12;101166.91;5035528;28;20632;-78
2021/09/10 04:59:44;;;;;;;25.23;22.53;;;;;;;18.04;79.30;101158.22;5036231;28;20612;-80
2021/09/10 05:02:09;;;;;;;26.37;23.57;;;;;;;18.05;80.37;101145.25;5036799;28;20193;-80
2021/09/10 05:04:34;;;;;;;27.70;24.77;;;;;;;18.12;81.38;101151.28;5036833;28;20199;-80
2021/09/10 05:07:00;;;;;;;30.43;26.57;;;;;;;18.18;81.95;101164.19;5036274;28;20252;-79
2021/09/10 05:09:25;;;;;;;32.07;26.07;;;;;;;18.26;82.23;101167.59;5036876;28;20175;-82
2021/09/10 05:11:50;;;;;;;31.73;28.33;;;;;;;18.34;82.50;101171.88;5043972;28;20285;-81
2021/09/10 05:14:16;;;;;;;31.40;27.90;;;;;;;18.41;82.31;101170.13;5039497;28;20178;-79
2021/09/10 05:16:41;;;;;;;32.83;29.17;;;;;;;18.46;82.68;101173.53;5028029;28;20192;-80
2021/09/10 05:19:07;;;;;;;38.93;32.80;;;;;;;18.54;83.54;101203.75;5042164;28;20312;-78
2021/09/10 05:21:32;;;;;;;39.13;33.17;;;;;;;18.59;84.02;101214.09;5037179;28;20207;-80
2021/09/10 05:23:58;;;;;;;35.67;31.93;;;;;;;18.56;84.44;101206.34;5040187;28;20198;-79
2021/09/10 05:26:25;;;;;;;39.83;32.70;;;;;;;18.58;84.10;101208.06;5039945;28;20190;-81
2021/09/10 05:28:50;;;;;;;36.47;32.57;;;;;;;18.61;83.64;101214.94;5040394;28;20198;-79
2021/09/10 05:31:15;;;;;;;34.00;30.40;;;;;;;18.61;83.13;101212.34;5039377;28;20285;-80
2021/09/10 05:33:41;;;;;;;34.73;30.20;;;;;;;18.65;82.84;101216.66;5040636;28;20222;-80
2021/09/10 05:36:07;;;;;;;33.50;29.90;;;;;;;18.72;82.97;101207.94;5020986;28;20234;-80
2021/09/10 05:38:32;;;;;;;37.30;33.03;;;;;;;18.80;83.12;101208.75;5020562;28;20230;-79
2021/09/10 05:40:57;;;;;;;34.70;31.07;;;;;;;18.88;83.28;101212.16;5038937;28;20217;-80
2021/09/10 05:43:23;;;;;;;34.70;31.10;;;;;;;18.92;82.91;101214.69;5037166;28;20186;-80
2021/09/10 05:45:48;;;;;;;35.40;31.40;;;;;;;19.00;82.38;101206.81;5037427;28;20552;-79
2021/09/10 05:48:18;;;;;;;36.77;30.53;;;;;;;19.08;82.17;101210.22;5041200;28;20193;-81
2021/09/10 05:50:44;;;;;;;41.37;34.00;;;;;;;19.21;82.81;101212.69;5039374;28;20199;-80
2021/09/10 05:53:09;;;;;;;45.73;37.53;;;;;;;19.30;82.74;101216.97;5039681;28;20210;-80
2021/09/10 05:55:35;;;;;;;44.97;37.17;;;;;;;19.37;82.55;101219.50;5022498;28;20194;-81
2021/09/10 05:58:00;;;;;;;47.43;38.30;;;;;;;19.47;81.84;101220.22;5036271;28;20191;-79
2021/09/10 06:00:26;;;;;;;42.23;36.00;;;;;;;19.54;81.88;101221.91;5039018;28;20245;-79
2021/09/10 06:02:51;;;;;;;40.53;34.97;;;;;;;19.57;82.19;101235.72;5020380;28;20187;-78
2021/09/10 06:05:17;;;;;;;44.80;36.60;;;;;;;19.62;82.62;101246.06;5039720;28;20198;-80
2021/09/10 06:07:42;;;;;;;41.50;34.90;;;;;;;19.67;82.39;101249.47;5039202;28;20236;-80
2021/09/10 06:10:08;;;;;;;39.47;34.47;;;;;;;19.67;82.32;101260.72;5030438;28;20716;-80
2021/09/10 06:12:34;;;;;;;37.47;33.03;;;;;;;19.68;82.80;101257.28;5021258;28;20208;-80
2021/09/10 06:14:59;;;;;;;40.37;34.57;;;;;;;19.64;82.87;101267.69;5025494;28;20181;-79
2021/09/10 06:17:24;;;;;;;57.10;41.20;;;;;;;19.52;84.45;101276.47;5036495;28;20198;-79
2021/09/10 06:19:50;;;;;;;51.60;40.73;;;;;;;19.35;85.87;101248.97;5015375;28;20242;-81
2021/09/10 06:22:15;;;;;;;59.37;44.40;;;;;;;19.20;86.74;101267.25;5014957;28;20197;-80
2021/09/10 06:24:41;;;;;;;64.10;49.17;;;;;;;19.18;87.30;101276.78;5008366;28;20191;-80
2021/09/10 06:27:06;;;;;;;67.50;48.17;;;;;;;19.10;87.05;101312.31;5017893;28;20194;-78
2021/09/10 06:29:32;;;;;;;57.73;44.53;;;;;;;19.01;87.29;101321.06;5021043;28;20183;-77
2021/09/10 06:31:57;;;;;;;68.40;50.83;;;;;;;19.05;87.90;101334.88;5020852;28;20187;-78
2021/09/10 06:34:25;;;;;;;74.70;54.70;;;;;;;19.06;88.77;101328.78;5027592;28;20187;-78
2021/09/10 06:36:50;;;;;;;83.27;56.83;;;;;;;19.03;88.17;101324.47;5032169;28;20610;-78
2021/09/10 06:39:17;;;;;;;86.53;59.03;;;;;;;19.03;88.52;101321.88;5040803;28;20258;-78
2021/09/10 06:41:42;;;;;;;89.50;61.17;;;;;;;19.02;88.68;101314.97;5046615;28;20222;-77
2021/09/10 06:44:08;;;;;;;78.00;54.63;;;;;;;19.03;88.11;101293.31;5028964;28;20195;-78
2021/09/10 06:46:33;;;;;;;68.77;51.83;;;;;;;19.02;87.68;101281.22;5035222;28;20236;-78
2021/09/10 06:48:59;;;;;;;60.50;46.83;;;;;;;19.06;86.99;101274.25;5034422;28;20270;-77
2021/09/10 06:51:24;;;;;;;55.17;43.57;;;;;;;19.09;86.77;101285.50;5019911;28;20258;-78
2021/09/10 06:53:49;;;;;;;56.30;43.30;;;;;;;19.10;86.58;101283.75;5028260;28;20336;-79
2021/09/10 06:56:15;;;;;;;44.83;35.70;;;;;;;19.11;86.50;101290.69;5031430;28;20183;-78
2021/09/10 06:58:40;;;;;;;41.00;34.47;;;;;;;19.20;85.76;101290.63;5031293;28;20182;-78
2021/09/10 07:01:06;;;;;;;47.00;37.23;;;;;;;19.25;85.51;101286.28;5048538;28;20234;-79
2021/09/10 07:03:31;;;;;;;44.40;35.47;;;;;;;19.26;85.38;101286.25;5051835;28;20174;-78
2021/09/10 07:05:57;;;;;;;38.23;33.00;;;;;;;19.27;85.47;101289.72;5049266;28;20209;-79
2021/09/10 07:08:22;;;;;;;37.20;33.17;;;;;;;19.29;85.18;101281.03;5012746;28;20238;-79
2021/09/10 07:10:47;;;;;;;34.63;30.57;;;;;;;19.29;85.21;101287.94;5032413;28;20214;-78
2021/09/10 07:13:12;;;;;;;33.93;30.23;;;;;;;19.30;85.18;101294.91;5032680;28;20194;-80
2021/09/10 07:15:40;;;;;;;36.47;30.50;;;;;;;19.29;85.26;101293.16;5031721;28;20191;-78
2021/09/10 07:18:05;;;;;;;37.33;32.37;;;;;;;19.28;85.25;101291.44;5033286;28;20182;-79
2021/09/10 07:20:30;;;;;;;35.13;29.57;;;;;;;19.28;85.05;101286.22;5032035;28;20229;-78
2021/09/10 07:22:56;;;;;;;34.00;28.87;;;;;;;19.28;85.11;101281.03;5034401;28;20199;-79
2021/09/10 07:25:21;;;;;;;32.20;28.70;;;;;;;19.31;84.68;101288.81;5036700;28;20206;-78
2021/09/10 07:27:47;;;;;;;31.77;28.07;;;;;;;19.27;84.79;101298.38;5019465;28;20202;-78
2021/09/10 07:30:12;;;;;;;33.37;29.03;;;;;;;19.29;84.68;101294.03;5035523;28;20213;-77
2021/09/10 07:32:38;;;;;;;33.90;28.63;;;;;;;19.30;84.95;101300.09;5036707;28;20186;-78
2021/09/10 07:35:03;;;;;;;28.40;25.40;;;;;;;19.32;84.71;101306.13;5039285;28;20208;-78
2021/09/10 07:37:30;;;;;;;29.57;26.40;;;;;;;19.33;84.41;101313.03;5035677;28;20194;-79
2021/09/10 07:39:56;;;;;;;28.83;25.73;;;;;;;19.32;84.84;101324.31;5035666;28;20798;-78
2021/09/10 07:42:22;;;;;;;29.37;24.63;;;;;;;19.31;84.92;101338.16;5035517;28;20751;-79
2021/09/10 07:44:48;;;;;;;27.53;24.53;;;;;;;19.29;85.00;101343.38;5036723;28;20190;-78
2021/09/10 07:47:13;;;;;;;28.17;25.17;;;;;;;19.33;84.77;101349.41;5034379;28;20679;-78
2021/09/10 07:49:38;;;;;;;28.87;23.57;;;;;;;19.31;85.07;101359.81;5034203;28;20605;-77
2021/09/10 07:52:04;;;;;;;24.20;21.40;;;;;;;19.32;85.13;101373.66;5034907;28;20187;-78
2021/09/10 07:54:29;;;;;;;19.03;16.90;;;;;;;19.31;85.06;101366.75;5034312;28;20531;-78
2021/09/10 07:56:55;;;;;;;17.40;15.53;;;;;;;19.34;84.67;101364.97;5032926;28;20194;-78
2021/09/10 07:59:20;;;;;;;17.33;15.53;;;;;;;19.35;84.65;101363.25;5035030;28;20190;-78
2021/09/10 08:01:45;;;;;;;17.20;15.47;;;;;;;19.33;85.07;101358.06;5035000;28;20222;-77
2021/09/10 08:04:11;;;;;;;17.40;15.60;;;;;;;19.29;84.94;101366.75;5035892;28;20221;-78
2021/09/10 08:06:37;;;;;;;17.90;16.00;;;;;;;19.26;85.05;101369.34;5035413;28;20197;-78
2021/09/10 08:09:03;;;;;;;18.17;16.10;;;;;;;19.31;84.74;101358.94;5035285;28;20289;-78
2021/09/10 08:11:30;;;;;;;21.67;17.60;;;;;;;19.34;84.85;101364.13;5017380;28;20202;-79
2021/09/10 08:13:56;;;;;;;19.07;17.17;;;;;;;19.27;85.59;101378.91;5034618;28;20336;-78
2021/09/10 08:16:22;;;;;;;24.07;21.17;;;;;;;19.20;85.64;101387.56;5035377;28;20198;-77
2021/09/10 08:18:47;;;;;;;27.13;22.87;;;;;;;19.18;85.63;101388.44;5034150;28;20193;-78
2021/09/10 08:21:12;;;;;;;24.63;20.80;;;;;;;19.18;85.52;101396.22;5033463;28;20232;-77
2021/09/10 08:23:38;;;;;;;24.63;20.17;;;;;;;19.20;86.08;101397.09;5035308;28;20210;-78
2021/09/10 08:26:03;;;;;;;28.00;24.17;;;;;;;19.16;85.98;101403.19;5033646;28;20191;-78
2021/09/10 08:28:28;;;;;;;27.17;22.77;;;;;;;19.17;85.90;101404.91;5033836;28;20183;-78
2021/09/10 08:30:54;;;;;;;29.90;24.47;;;;;;;19.16;86.04;101411.81;5035655;28;20237;-77
2021/09/10 08:33:19;;;;;;;31.73;26.43;;;;;;;19.16;85.88;101414.41;5035938;28;20973;-78
2021/09/10 08:35:45;;;;;;;39.47;29.30;;;;;;;19.11;86.43;101413.59;5038357;28;20820;-78
2021/09/10 08:38:10;;;;;;;35.27;29.73;;;;;;;19.13;86.16;101417.06;5034519;28;20240;-77
2021/09/10 08:40:35;;;;;;;40.70;31.17;;;;;;;19.15;85.94;101417.00;5035478;28;20234;-77
2021/09/10 08:43:02;;;;;;;38.40;32.10;;;;;;;19.16;85.82;101429.16;5032690;28;20216;-77
2021/09/10 08:45:29;;;;;;;37.67;31.67;;;;;;;19.18;85.83;101435.19;5031781;28;20214;-77
2021/09/10 08:47:55;;;;;;;41.20;33.10;;;;;;;19.18;86.10;101438.66;5034376;28;20818;-78
2021/09/10 08:50:23;;;;;;;43.37;34.63;;;;;;;19.14;85.89;101439.53;5034899;28;20253;-77
2021/09/10 08:52:48;;;;;;;45.37;36.93;;;;;;;19.16;86.15;101435.19;5035713;28;20638;-79
2021/09/10 08:55:16;;;;;;;44.63;37.40;;;;;;;19.16;86.26;101442.97;5033681;28;20202;-78
2021/09/10 08:57:52;;;;;;;45.63;37.53;;;;;;;19.18;86.39;101428.28;5034211;28;20685;-78
2021/09/10 09:00:27;;;;;;;48.10;38.70;;;;;;;19.18;86.52;101417.00;5034005;28;20251;-78
2021/09/10 09:03:01;;;;;;;47.83;37.20;;;;;;;19.16;86.07;101401.44;5033832;28;20191;-77
2021/09/10 09:05:27;;;;;;;48.10;38.77;;;;;;;19.18;86.22;101412.69;5034135;28;20183;-78
2021/09/10 09:08:12;;;;;;;50.33;39.30;;;;;;;19.20;86.21;101412.69;5034329;28;20205;-78
2021/09/10 09:10:56;;;;;;;50.40;39.20;;;;;;;19.22;86.06;101400.53;5033958;28;20217;-78
2021/09/10 09:13:24;;;;;;;47.90;37.93;;;;;;;19.22;85.97;101406.63;5034216;28;20186;-78
2021/09/10 09:16:14;;;;;;;47.17;38.53;;;;;;;19.20;85.87;101407.50;5035273;28;20187;-77
2021/09/10 09:18:42;;;;;;;50.93;39.80;;;;;;;19.20;85.82;101416.13;5017402;28;20195;-78
2021/09/10 09:21:07;;;;;;;49.93;40.47;;;;;;;19.18;86.00;101410.09;5034315;28;20226;-77
2021/09/10 09:23:33;;;;;;;52.93;40.47;;;;;;;19.19;86.18;101403.13;5033784;28;20205;-78
2021/09/10 09:25:58;;;;;;;45.87;37.63;;;;;;;19.20;85.73;101395.34;5032816;28;20190;-78
2021/09/10 09:28:29;;;;;;;45.30;37.13;;;;;;;19.24;85.52;101391.03;5034154;28;20206;-78
2021/09/10 09:30:56;;;;;;;43.93;36.87;;;;;;;19.28;85.30;101385.81;5016594;28;20293;-78
2021/09/10 09:33:26;;;;;;;43.03;34.43;;;;;;;19.29;84.97;101371.94;5032824;28;20293;-78
2021/09/10 09:35:55;;;;;;;36.87;31.53;;;;;;;19.30;84.48;101360.66;5034383;28;20651;-78
2021/09/10 09:38:26;;;;;;;39.77;32.30;;;;;;;19.34;84.38;101369.31;5038985;28;20198;-78
2021/09/10 09:40:57;;;;;;;44.50;35.30;;;;;;;19.41;84.85;101371.84;5042159;28;20214;-79
2021/09/10 09:43:26;;;;;;;43.07;35.13;;;;;;;19.45;84.95;101377.88;5032842;28;20254;-78
2021/09/10 09:45:53;;;;;;;42.00;35.33;;;;;;;19.46;85.32;101382.19;5032174;28;20196;-78
2021/09/10 09:48:21;;;;;;;43.70;36.03;;;;;;;19.51;84.83;101385.63;5031108;28;20607;-79
2021/09/10 09:50:49;;;;;;;50.57;38.67;;;;;;;19.53;85.23;101387.31;5033323;28;20202;-78
2021/09/10 09:53:15;;;;;;;47.43;37.77;;;;;;;19.56;85.03;101386.44;5032105;28;20229;-78
2021/09/10 09:55:42;;;;;;;50.03;40.00;;;;;;;19.59;85.40;101386.41;5031646;28;20193;-77
2021/09/10 09:58:09;;;;;;;54.20;41.97;;;;;;;19.58;85.71;101392.50;5033153;28;20194;-78
2021/09/10 10:00:39;;;;;;;46.60;39.30;;;;;;;19.63;85.47;101388.97;5032661;28;20700;-78
2021/09/10 10:03:05;;;;;;;38.50;32.17;;;;;;;19.66;84.82;101391.56;5052473;28;20182;-77
2021/09/10 10:05:33;;;;;;;41.23;33.07;;;;;;;19.70;84.68;101390.66;5051154;28;20263;-77
2021/09/10 10:08:05;;;;;;;44.13;35.30;;;;;;;19.83;84.45;101394.00;5052714;28;20173;-79
2021/09/10 10:10:53;;;;;;;46.50;36.90;;;;;;;19.87;84.22;101380.09;5051420;28;20229;-78
2021/09/10 10:13:26;;;;;;;45.43;37.57;;;;;;;19.95;83.85;101389.53;5054571;28;20588;-79
2021/09/10 10:15:52;;;;;;;43.70;36.73;;;;;;;19.96;83.78;101391.28;5051093;28;20186;-79
2021/09/10 10:18:42;;;;;;;41.90;34.47;;;;;;;20.14;82.79;101400.66;5054673;28;20185;-78
2021/09/10 10:21:10;;;;;;;34.77;29.67;;;;;;;20.34;81.57;101396.09;5055579;28;20228;-77
2021/09/10 10:23:42;;;;;;;39.27;29.73;;;;;;;20.42;81.64;101396.88;5054948;28;20200;-77
2021/09/10 10:26:16;;;;;;;28.70;25.23;;;;;;;20.47;81.17;101398.53;5058342;28;20197;-77
2021/09/10 10:28:53;;;;;;;25.27;22.67;;;;;;;20.69;79.82;101386.94;5054347;28;20284;-78
2021/09/10 10:31:57;;;;;;;24.47;21.97;;;;;;;20.80;79.63;101387.69;5054674;28;20299;-77
2021/09/10 10:34:23;;;;;;;21.57;19.27;;;;;;;20.91;79.26;101391.03;5051868;28;20280;-78
2021/09/10 10:36:48;;;;;;;21.03;18.83;;;;;;;20.92;79.37;101395.34;5052120;28;20726;-78
2021/09/10 10:39:20;;;;;;;21.77;19.40;;;;;;;20.90;79.98;101396.25;5052529;28;20265;-78
2021/09/10 10:41:46;;;;;;;23.37;20.97;;;;;;;20.83;80.22;101390.22;5052871;28;20225;-78
2021/09/10 10:44:30;;;;;;;26.53;22.67;;;;;;;20.97;79.79;101397.91;5052325;28;20190;-77
2021/09/10 10:47:15;;;;;;;25.87;23.07;;;;;;;21.24;78.38;101389.69;5052747;28;20604;-78
2021/09/10 10:49:43;;;;;;;27.27;24.23;;;;;;;21.39;77.88;101387.72;5050325;28;20335;-77
2021/09/10 10:52:27;;;;;;;26.97;24.17;;;;;;;21.46;78.00;101393.69;5052342;28;20221;-78
2021/09/10 10:55:17;;;;;;;26.67;23.87;;;;;;;21.50;78.04;101393.59;5050458;28;20217;-78
2021/09/10 10:57:43;;;;;;;28.47;25.47;;;;;;;21.50;77.81;101384.91;5051956;28;20196;-78
2021/09/10 11:00:32;;;;;;;30.10;26.30;;;;;;;21.60;76.97;101383.91;5056254;28;20213;-78
2021/09/10 11:03:13;;;;;;;26.13;23.33;;;;;;;21.89;76.93;101385.13;5014552;28;20192;-77
2021/09/10 11:05:43;;;;;;;26.63;22.77;;;;;;;22.16;75.76;101387.22;5013212;28;20257;-76
2021/09/10 11:08:08;;;;;;;23.33;20.80;;;;;;;22.25;75.62;101384.44;5015386;28;20201;-76